Latest Weather Observations for Sheffield

IDT60801

Issued at 11:21 pm EST Sunday 21 July 2019 (issued every 10 minutes, with the page automatically refreshed every 10 minutes)

About weather observations | Map of weather stations | Latest weather observations for TAS | Other Formats
Station Details ID: 091291 Name: SHEFFIELD SCHOOL FARM Lat: -41.39 Lon: 146.32 Height: 294.2 m
Data from the previous 72 hours. | See also: Recent months at Sheffield
Date/Time
EST
Temp
°C
App
Temp
°C
Dew
Point
°C
Rel
Hum
%
Delta-T
°C
Wind Press
QNH
hPa
Press
MSL
hPa
Rain since
9am
mm
Dir  Spd
km/h
Gust
km/h
Spd
kts
Gust
kts
21/11:00pm 6.4 4.1 5.8 96 0.3 NNW 7 11 4 6 1009.8 1010.4 1.4
21/10:30pm 6.3 3.6 5.4 94 0.4 NNW 9 13 5 7 1009.9 1010.5 1.4
21/10:00pm 6.8 4.0 5.3 90 0.7 NNW 9 11 5 6 1009.8 1010.4 1.2
21/09:30pm 7.0 3.4 5.0 87 0.9 NW 13 15 7 8 1009.6 1010.2 1.0
21/09:00pm 7.0 2.0 4.7 85 1.0 NW 20 30 11 16 1009.5 1010.1 1.0
21/08:30pm 6.8 2.3 4.3 84 1.1 NW 17 24 9 13 1009.2 1009.7 1.0
21/08:00pm 6.3 2.2 4.3 87 0.9 NW 15 20 8 11 1008.9 1009.4 1.0
21/07:30pm 5.0 1.4 3.0 87 0.8 WNW 11 15 6 8 1008.7 1009.2 1.0
21/07:00pm 6.7 2.5 3.7 81 1.3 NW 15 20 8 11 1008.4 1008.9 1.0
21/06:30pm 6.6 2.7 3.4 80 1.4 NW 13 19 7 10 1008.0 1008.6 1.0
21/06:00pm 7.0 2.7 3.4 78 1.6 NW 15 19 8 10 1007.6 1008.2 1.0
21/05:30pm 6.8 2.5 3.2 78 1.5 NW 15 20 8 11 1007.1 1007.7 1.0
21/05:00pm 7.0 3.1 3.3 77 1.6 NW 13 20 7 11 1006.7 1007.3 1.0
21/04:30pm 7.9 2.3 3.6 74 1.9 WNW 22 39 12 21 1006.1 1006.6 1.0
21/04:00pm 9.2 4.4 2.8 64 2.8 W 17 26 9 14 1005.8 1006.3 1.0
21/03:30pm 9.7 4.0 3.0 63 2.9 WNW 22 43 12 23 1005.3 1005.8 1.0
21/03:00pm 9.7 3.9 4.3 69 2.4 WNW 24 32 13 17 1004.7 1005.3 1.0
21/02:40pm 9.1 1.1 3.7 69 2.4 WNW 35 54 19 29 1004.4 1005.0 1.0
21/02:30pm 9.6 1.8 3.1 64 2.8 WNW 33 48 18 26 1004.4 1005.0 1.0
21/02:19pm 9.6 1.9 3.4 65 2.7 WNW 33 57 18 31 1004.2 1004.8 1.0
21/02:00pm 10.2 3.3 4.6 68 2.6 WNW 30 44 16 24 1004.1 1004.7 1.0
21/01:30pm 10.2 3.3 4.8 69 2.5 WNW 30 41 16 22 1003.9 1004.5 1.0
21/01:00pm 10.3 4.8 5.7 73 2.2 WNW 24 35 13 19 1003.7 1004.2 1.0
21/12:30pm 9.9 4.2 4.7 70 2.4 W 24 35 13 19 1003.7 1004.2 1.0
21/12:00pm 10.8 3.0 5.1 68 2.7 WNW 35 52 19 28 1003.3 1003.8 0.8
21/11:36am 10.8 3.7 5.6 70 2.4 WNW 32 52 17 28 1003.3 1003.8 0.8
21/11:30am 10.8 5.0 6.4 74 2.1 WNW 26 35 14 19 1003.4 1003.9 0.8
21/11:23am 10.7 4.2 6.3 74 2.1 WNW 30 50 16 27 1003.5 1004.0 0.8
21/11:00am 9.9 4.6 6.8 81 1.5 WNW 24 32 13 17 1003.6 1004.1 0.8
21/10:30am 10.9 6.1 7.4 79 1.7 NW 22 35 12 19 1003.3 1003.8 0.8
21/10:00am 9.8 3.8 7.2 84 1.3 NW 28 44 15 24 1002.9 1003.4 0.8
21/09:30am 9.8 4.8 7.9 88 0.9 NW 24 32 13 17 1002.7 1003.2 0.8
21/09:00am 10.2 3.6 7.8 85 1.2 NW 32 44 17 24 1002.1 1002.6 8.0
21/08:30am 9.6 4.2 7.9 89 0.8 NNW 26 41 14 22 1002.4 1002.9 8.0
21/08:00am 9.3 3.6 8.2 93 0.5 NNW 28 43 15 23 1002.5 1003.0 8.0
21/07:30am 9.4 4.1 8.3 93 0.5 N 26 37 14 20 1002.6 1003.1 6.8
21/07:00am 9.5 5.4 7.9 90 0.8 N 19 28 10 15 1003.1 1003.6 4.4
21/06:30am 9.6 5.4 7.5 87 1.0 NNE 19 30 10 16 1003.5 1004.0 2.8
21/06:00am 9.4 6.7 7.3 87 1.0 N 11 19 6 10 1004.3 1004.9 1.8
21/05:30am 9.8 6.6 6.9 82 1.4 N 13 22 7 12 1004.7 1005.3 0.8
21/05:00am 10.1 6.9 7.0 81 1.5 N 13 20 7 11 1005.4 1005.9 0.2
21/04:30am 10.2 7.7 6.5 78 1.8 N 9 19 5 10 1005.7 1006.2 0.2
21/04:00am 10.5 6.9 6.6 77 1.9 N 15 22 8 12 1006.2 1006.7 0.2
21/03:30am 10.4 8.0 6.9 79 1.7 N 9 20 5 11 1006.7 1007.3 0.2
21/03:00am 10.4 7.3 7.1 80 1.6 N 13 20 7 11 1007.3 1007.9 0.2
21/02:30am 10.5 6.6 7.0 79 1.7 N 17 28 9 15 1007.7 1008.3 0.2
21/02:00am 10.5 6.2 7.2 80 1.6 N 19 28 10 15 1008.1 1008.7 0.2
21/01:30am 10.4 6.9 7.3 81 1.5 NNW 15 24 8 13 1008.7 1009.2 0.2
21/01:00am 10.3 7.0 7.9 85 1.2 NNW 15 20 8 11 1009.3 1009.8 0.2
21/12:30am 10.3 7.3 7.9 85 1.2 N 13 20 7 11 1009.6 1010.2 0.2
21/12:00am 10.1 7.7 8.5 90 0.8 N 11 22 6 12 1010.2 1010.8 0.2
 
Date/Time
EST
Temp
°C
App
Temp
°C
Dew
Point
°C
Rel
Hum
%
Delta-T
°C
Wind Press
QNH
hPa
Press
MSL
hPa
Rain since
9am
mm
Dir  Spd
km/h
Gust
km/h
Spd
kts
Gust
kts
20/11:30pm 10.2 7.3 8.1 87 1.0 NNW 13 19 7 10 1010.8 1011.4 0.2
20/11:00pm 10.4 7.4 7.8 84 1.3 NNW 13 20 7 11 1011.0 1011.6 0.2
20/10:30pm 10.4 7.8 7.6 83 1.4 N 11 19 6 10 1011.3 1011.9 0.2
20/10:00pm 10.2 8.1 8.1 87 1.0 N 9 19 5 10 1011.5 1012.1 0.2
20/09:30pm 10.2 7.4 8.5 89 0.8 N 13 22 7 12 1012.0 1012.5 0.2
20/09:00pm 10.1 8.5 8.7 91 0.7 N 7 15 4 8 1012.2 1012.7 0.2
20/08:30pm 9.9 9.1 8.3 90 0.8 NW 2 7 1 4 1012.4 1013.0 0.2
20/08:00pm 9.9 8.4 8.5 91 0.7 N 6 13 3 7 1012.4 1013.0 0.2
20/07:30pm 9.7 8.2 8.3 91 0.7 NNW 6 9 3 5 1012.4 1013.0 0.2
20/07:00pm 9.9 8.4 8.3 90 0.8 N 6 11 3 6 1012.5 1013.1 0.2
20/06:30pm 9.7 7.9 8.1 90 0.8 N 7 11 4 6 1012.5 1013.1 0.2
20/06:00pm 9.7 7.5 8.0 89 0.8 N 9 13 5 7 1012.5 1013.1 0.2
20/05:30pm 9.7 6.3 7.8 88 0.9 NNW 15 20 8 11 1012.5 1013.1 0.2
20/05:00pm 9.9 5.8 7.8 87 1.0 NNW 19 28 10 15 1012.6 1013.2 0.2
20/04:30pm 10.1 6.8 8.0 87 1.0 NNW 15 22 8 12 1012.7 1013.3 0.2
20/04:00pm 10.3 7.3 7.9 85 1.2 N 13 19 7 10 1012.7 1013.3 0.2
20/03:30pm 11.0 7.7 8.2 83 1.4 NNW 15 24 8 13 1012.9 1013.5 0.2
20/03:00pm 10.7 7.9 8.5 86 1.1 NNW 13 17 7 9 1013.1 1013.7 0.2
20/02:30pm 11.1 6.9 8.3 83 1.4 NNW 20 24 11 13 1013.0 1013.6 0.2
20/02:00pm 10.9 6.8 8.5 85 1.2 NNW 20 28 11 15 1013.3 1013.9 0.2
20/01:30pm 11.0 7.2 8.9 87 1.1 NNW 19 28 10 15 1013.5 1014.1 0.2
20/01:00pm 10.4 7.4 9.2 92 0.6 NNW 15 24 8 13 1014.0 1014.6 0.2
20/12:30pm 9.8 7.1 8.9 94 0.4 NW 13 20 7 11 1014.3 1014.9 0.2
20/12:00pm 9.6 8.2 8.8 95 0.4 NNW 6 9 3 5 1014.8 1015.4 0.2
20/11:30am 9.1 7.9 8.2 94 0.4 NNW 4 6 2 3 1015.6 1016.2 0.2
20/11:00am 8.1 7.5 7.2 94 0.4 CALM 0 0 0 0 1015.9 1016.5 0.2
20/10:30am 7.3 6.1 6.4 94 0.4 ENE 2 2 1 1 1016.1 1016.7 0.2
20/10:00am 7.2 6.4 6.3 94 0.4 CALM 0 0 0 0 1016.3 1016.9 0.0
20/09:30am 6.9 5.9 5.8 93 0.5 CALM 0 0 0 0 1016.4 1017.0 0.0
20/09:00am 6.6 5.7 5.9 95 0.3 CALM 0 0 0 0 1016.4 1017.0 0.2
20/08:30am 6.2 5.1 5.3 94 0.4 CALM 0 0 0 0 1016.3 1016.9 0.2
20/08:00am 6.3 5.2 5.1 92 0.5 CALM 0 0 0 0 1016.3 1016.9 0.2
20/07:30am 6.3 4.8 5.1 92 0.5 NNW 2 2 1 1 1016.2 1016.8 0.2
20/07:00am 5.9 4.0 4.7 92 0.5 NNW 4 6 2 3 1016.1 1016.7 0.2
20/06:30am 6.6 5.5 5.2 91 0.6 CALM 0 0 0 0 1016.2 1016.8 0.2
20/06:00am 6.1 4.6 5.2 94 0.4 NNE 2 6 1 3 1016.1 1016.7 0.2
20/05:30am 5.8 4.3 4.9 94 0.4 NNW 2 4 1 2 1016.4 1017.0 0.2
20/05:00am 5.9 4.4 5.2 95 0.3 WNW 2 4 1 2 1016.2 1016.8 0.2
20/04:30am 5.9 4.5 5.3 96 0.3 WNW 2 4 1 2 1016.3 1016.9 0.2
20/04:00am 5.6 3.7 5.0 96 0.3 NNW 4 6 2 3 1016.4 1017.0 0.2
20/03:30am 5.6 4.1 5.0 96 0.3 W 2 4 1 2 1016.6 1017.2 0.2
20/03:00am 5.6 3.7 5.0 96 0.3 W 4 6 2 3 1017.1 1017.7 0.2
20/02:30am 5.5 3.0 4.9 96 0.3 WSW 7 9 4 5 1017.4 1018.0 0.2
20/02:00am 5.2 2.7 4.6 96 0.3 NW 7 9 4 5 1017.7 1018.3 0.2
20/01:30am 4.8 2.2 4.1 95 0.3 NNW 7 9 4 5 1017.2 1017.8 0.2
20/01:00am 4.8 2.1 3.9 94 0.4 NNW 7 9 4 5 1017.6 1018.2 0.2
20/12:30am 5.1 2.7 4.4 95 0.3 NW 6 7 3 4 1017.8 1018.4 0.2
20/12:00am 4.4 2.3 3.7 95 0.3 W 4 6 2 3 1017.9 1018.5 0.2
 
Date/Time
EST
Temp
°C
App
Temp
°C
Dew
Point
°C
Rel
Hum
%
Delta-T
°C
Wind Press
QNH
hPa
Press
MSL
hPa
Rain since
9am
mm
Dir  Spd
km/h
Gust
km/h
Spd
kts
Gust
kts
19/11:30pm 4.4 1.3 3.7 95 0.3 NW 9 11 5 6 1018.4 1019.1 0.2
19/11:00pm 3.8 0.6 2.8 93 0.4 NW 9 11 5 6 1018.1 1018.8 0.2
19/10:30pm 4.5 1.9 3.3 92 0.5 NW 6 7 3 4 1017.9 1018.5 0.2
19/10:00pm 4.8 2.6 3.6 92 0.5 NW 4 6 2 3 1017.9 1018.5 0.2
19/09:30pm 4.9 2.2 3.6 91 0.6 NW 7 9 4 5 1017.8 1018.4 0.2
19/09:00pm 4.7 2.0 3.5 92 0.5 NNW 7 9 4 5 1017.7 1018.3 0.2
19/08:30pm 4.9 1.8 3.6 91 0.6 NNW 9 9 5 5 1017.7 1018.3 0.2
19/08:00pm 5.1 1.2 3.4 89 0.7 NNW 13 17 7 9 1017.2 1017.8 0.2
19/07:30pm 6.8 3.2 3.2 78 1.5 NW 11 15 6 8 1016.8 1017.4 0.2
19/07:00pm 7.0 3.5 3.3 77 1.6 NW 11 17 6 9 1016.7 1017.3 0.2
19/06:30pm 7.7 3.5 3.7 76 1.7 NW 15 20 8 11 1015.9 1016.5 0.2
19/06:00pm 7.7 3.8 3.6 75 1.8 W 13 19 7 10 1015.6 1016.2 0.2
19/05:30pm 7.9 4.4 3.6 74 1.9 WNW 11 17 6 9 1015.3 1016.0 0.2
19/05:00pm 8.4 4.2 3.8 73 2.0 WSW 15 22 8 12 1015.3 1016.0 0.2
19/04:30pm 9.6 4.8 4.6 71 2.3 W 19 28 10 15 1014.9 1015.5 0.2
19/04:00pm 9.7 4.3 4.5 70 2.4 W 22 33 12 18 1014.4 1015.0 0.2
19/03:30pm 10.2 2.9 4.4 67 2.6 WSW 32 46 17 25 1013.9 1014.5 0.2
19/03:10pm 10.4 3.9 4.5 67 2.7 W 28 46 15 25 1013.6 1014.2 0.2
19/03:00pm 10.6 4.0 4.3 65 2.9 W 28 39 15 21 1013.4 1014.0 0.2
19/02:30pm 10.7 4.9 4.6 66 2.8 W 24 35 13 19 1013.7 1014.3 0.2
19/02:00pm 10.2 4.8 4.4 67 2.6 W 22 33 12 18 1013.1 1013.7 0.2
19/01:30pm 9.8 4.3 4.0 67 2.6 W 22 33 12 18 1013.3 1013.9 0.2
19/01:19pm 10.1 2.6 3.6 64 2.9 W 32 54 17 29 1012.9 1013.5 0.2
19/01:00pm 10.9 4.3 4.1 63 3.1 W 28 39 15 21 1012.7 1013.3 0.2
19/12:32pm 10.1 2.8 4.3 67 2.6 WSW 32 52 17 28 1012.9 1013.5 0.2
19/12:30pm 10.1 2.5 4.0 66 2.7 WSW 33 52 18 28 1013.0 1013.6 0.2
19/12:00pm 10.7 3.3 4.0 63 3.0 W 32 43 17 23 1013.4 1014.0 0.2
19/11:30am 10.6 3.0 4.1 64 2.9 W 33 50 18 27 1013.8 1014.4 0.2
19/11:00am 10.3 2.7 3.8 64 2.9 W 33 48 18 26 1013.6 1014.2 0.2
19/10:54am 10.3 3.6 3.6 63 3.0 W 28 46 15 25 1013.5 1014.1 0.2
19/10:30am 9.9 4.3 3.4 64 2.9 W 22 37 12 20 1013.9 1014.5 0.2
19/10:00am 9.6 4.4 3.4 65 2.7 W 20 32 11 17 1013.7 1014.3 0.0
19/09:30am 9.1 4.0 2.9 65 2.7 WNW 19 26 10 14 1013.3 1013.9 0.0
19/09:00am 8.0 3.3 2.9 70 2.2 WNW 17 26 9 14 1013.0 1013.6 5.8
19/08:30am 6.7 2.6 2.4 74 1.8 NW 13 17 7 9 1012.8 1013.4 5.8
19/08:00am 6.4 2.3 2.5 76 1.6 NW 13 20 7 11 1012.3 1012.8 5.8
19/07:30am 5.1 1.7 2.1 81 1.2 NW 9 17 5 9 1012.0 1012.5 5.8
19/07:00am 4.5 1.4 1.4 80 1.2 NNW 7 13 4 7 1011.5 1012.1 5.8
19/06:30am 4.2 0.7 1.2 81 1.2 NNW 9 11 5 6 1011.3 1011.9 5.8
19/06:00am 5.7 1.5 1.4 74 1.7 WNW 13 24 7 13 1010.7 1011.3 5.8
19/05:30am 6.0 0.6 1.5 73 1.8 W 19 26 10 14 1010.4 1011.0 5.8
19/05:00am 5.9 0.6 1.8 75 1.7 W 19 24 10 13 1010.3 1010.9 5.8
19/04:30am 6.3 1.0 1.6 72 1.9 W 19 28 10 15 1009.8 1010.4 5.8
19/04:00am 6.6 1.2 1.3 69 2.2 W 19 32 10 17 1009.2 1009.7 5.8
19/03:30am 6.5 1.5 1.4 70 2.1 W 17 28 9 15 1008.9 1009.4 5.8
19/03:00am 6.4 0.1 1.7 72 1.9 W 24 37 13 20 1008.1 1008.7 5.8
19/02:45am 6.7 -0.7 1.6 70 2.1 W 30 50 16 27 1007.7 1008.3 5.8
19/02:30am 6.7 -1.3 1.6 70 2.1 W 33 52 18 28 1007.3 1007.9 5.8
19/02:01am 7.0 0.0 1.7 69 2.2 W 28 50 15 27 1006.8 1007.4 5.8
19/02:00am 6.8 -0.2 1.9 71 2.0 W 28 44 15 24 1006.8 1007.4 5.8
19/01:30am 6.8 1.5 2.1 72 2.0 W 19 41 10 22 1006.5 1007.0 5.8
19/01:00am 7.1 1.3 2.4 72 2.0 W 22 35 12 19 1005.6 1006.1 5.8
19/12:32am 7.1 0.1 2.0 70 2.1 W 28 50 15 27 1005.2 1005.7 5.8
19/12:30am 6.9 0.3 2.0 71 2.0 W 26 39 14 21 1005.2 1005.7 5.8
19/12:00am 7.8 -0.8 2.5 69 2.3 WSW 37 67 20 36 1004.9 1005.4 5.8
 
Date/Time
EST
Temp
°C
App
Temp
°C
Dew
Point
°C
Rel
Hum
%
Delta-T
°C
Wind Press
QNH
hPa
Press
MSL
hPa
Rain since
9am
mm
Dir  Spd
km/h
Gust
km/h
Spd
kts
Gust
kts
18/11:56pm 8.0 0.5 3.5 73 2.0 W 32 54 17 29 1004.7 1005.3 5.8
18/11:30pm 8.3 2.6 5.1 80 1.5 WNW 24 37 13 20 1004.0 1004.6 5.8

Other formats

Comma delimited format used in spreadsheet applications
http://www.bom.gov.au/fwo/IDT60801/IDT60801.94955.axf

JavaScript Object Notation format (JSON) in row-major order
http://www.bom.gov.au/fwo/IDT60801/IDT60801.94955.json

Data quality

Most of these data are generated automatically and are frequently updated. Quality checks on data are not normally performed. It is possible for incorrect values to appear. Refer to information at About Latest Weather Observations and please check the disclaimer before using these data.